Date,TemperatureHighF,TemperatureAvgF,TemperatureLowF,DewpointHighF,DewpointAvgF,DewpointLowF,HumidityHigh,HumidityAvg,HumidityLow,PressureMaxIn,PressureMinIn,WindSpeedMaxMPH,WindSpeedAvgMPH,GustSpeedMaxMPH,PrecipitationSumIn
2014-1-1,66,47,34,35,32,29,84,61,28,30.22,30.13,6,0,8,0.00
2014-1-2,65,49,37,39,35,32,81,62,35,30.19,30.07,7,1,10,0.00
2014-1-3,66,50,38,41,37,33,84,65,36,30.08,29.96,5,0,10,0.00
2014-1-4,68,50,37,41,33,20,88,58,20,30.09,29.99,7,1,11,0.00
2014-1-5,66,51,39,38,28,15,77,44,24,30.23,30.09,7,1,8,0.00
2014-1-6,60,48,38,40,37,33,83,68,45,30.30,30.18,4,0,6,0.00
2014-1-7,64,51,41,49,40,36,88,68,37,30.21,30.12,6,0,10,0.00
2014-1-8,57,52,46,50,49,44,93,88,76,30.23,30.14,6,1,11,0.00
2014-1-9,61,51,45,51,46,40,96,83,57,30.27,30.17,7,0,10,0.00
2014-1-10,63,50,40,48,43,38,93,79,55,30.31,30.18,5,0,7,0.00
2014-1-11,57,49,42,52,46,40,94,90,79,30.30,30.15,7,0,12,0.00
2014-1-12,60,49,38,46,38,31,97,69,39,30.39,30.27,10,2,15,0.01
2014-1-13,67,55,42,37,35,32,71,49,28,30.46,30.36,13,3,20,0.00
2014-1-14,73,53,39,38,31,25,80,50,17,30.45,30.34,7,1,13,0.00
2014-1-15,72,52,40,41,33,21,79,53,16,30.36,30.21,7,1,12,0.00
2014-1-16,72,52,38,37,32,22,73,52,17,30.25,30.14,6,1,10,0.00
2014-1-17,69,49,37,40,35,29,78,60,35,30.23,30.13,3,0,9,0.00
2014-1-18,71,50,34,35,32,29,84,56,23,30.19,30.07,5,0,10,0.00
2014-1-19,68,48,34,39,33,28,79,59,33,30.16,30.07,6,0,9,0.00
2014-1-20,70,52,37,35,31,29,83,50,23,30.26,30.14,5,1,9,0.00
2014-1-21,69,50,36,33,29,26,73,50,21,30.28,30.17,6,1,12,0.00
2014-1-22,74,51,36,32,28,16,72,47,12,30.20,29.94,6,0,11,0.00
2014-1-23,66,52,40,34,31,28,69,48,27,30.03,29.88,10,1,13,0.00
2014-1-24,71,52,39,39,35,32,80,56,24,30.28,30.04,4,0,7,0.00
2014-1-25,73,54,41,37,32,28,76,49,19,30.29,30.13,6,0,10,0.00
2014-1-26,71,54,41,42,34,31,72,50,25,30.14,30.02,6,1,12,0.00
2014-1-27,66,52,42,49,44,37,93,76,52,30.19,30.08,8,2,14,0.00
2014-1-28,69,58,50,57,52,47,95,79,54,30.25,30.17,8,1,13,0.00
2014-1-29,61,58,54,58,56,49,97,93,84,30.20,29.98,5,1,12,0.00
2014-1-30,60,53,50,50,48,45,95,83,65,29.98,29.85,11,2,15,0.01
2014-1-31,61,50,41,47,38,23,94,66,23,30.09,29.92,10,1,12,0.00
2014-2-1,60,45,34,38,34,30,90,68,35,30.18,30.09,7,0,11,0.00
2014-2-2,47,43,39,44,39,34,94,87,80,30.08,29.86,8,1,12,0.00
2014-2-3,56,45,38,43,39,36,96,81,52,30.09,29.99,12,1,12,0.01
2014-2-4,56,44,35,41,37,33,94,79,54,30.18,30.08,4,0,9,0.00
2014-2-5,55,45,35,44,39,33,94,81,52,30.21,30.09,7,1,12,0.01
2014-2-6,53,49,45,49,46,43,96,91,82,30.08,29.90,6,0,10,0.00
2014-2-7,54,52,49,51,49,47,95,91,84,30.10,30.00,14,2,21,0.12
2014-2-8,59,56,53,56,54,50,95,92,84,30.17,30.06,8,2,16,0.14
2014-2-9,60,57,55,57,55,54,97,94,84,30.17,30.07,9,2,13,0.04
2014-2-10,61,55,52,55,53,50,97,92,79,30.28,30.11,8,1,11,0.01
2014-2-11,65,54,48,53,50,47,98,86,61,30.25,30.16,5,0,9,0.01
2014-2-12,66,53,43,50,46,42,97,80,52,30.28,30.18,6,1,8,0.00
2014-2-13,72,61,50,59,54,47,95,81,63,30.22,30.09,9,1,12,0.00
2014-2-14,64,58,50,56,54,48,96,86,70,30.16,30.06,6,1,10,0.00
2014-2-15,61,54,47,54,50,46,96,88,77,30.06,29.97,5,1,15,0.00
2014-2-16,64,54,44,53,43,34,96,71,33,30.20,30.03,10,1,13,0.00
2014-2-17,63,50,38,47,42,36,93,75,45,30.19,30.11,9,1,11,0.00
2014-2-18,65,52,40,50,45,39,94,80,48,30.20,30.09,5,0,12,0.00
2014-2-19,65,56,46,51,46,36,96,72,37,30.21,30.09,11,2,19,0.00
2014-2-20,68,53,40,42,38,33,94,63,30,30.21,30.11,5,0,9,0.00
2014-2-21,72,55,41,44,40,37,87,62,28,30.13,29.97,7,1,11,0.00
2014-2-22,72,56,42,48,42,33,91,65,25,30.02,29.91,8,2,12,0.00
2014-2-23,73,54,42,49,44,40,97,73,33,30.02,29.94,8,1,11,0.00
2014-2-24,75,57,41,48,44,39,92,67,34,30.01,29.90,6,1,10,0.00
2014-2-25,69,55,45,51,47,42,92,76,46,29.98,29.89,9,2,14,0.00
2014-2-26,59,55,52,55,52,48,93,87,78,29.96,29.68,12,3,22,0.12
2014-2-27,65,57,53,54,49,45,92,76,54,29.91,29.54,10,3,18,0.01
2014-2-28,60,54,51,53,50,45,94,85,62,29.52,29.38,12,4,21,0.17
2014-3-1,65,57,49,50,48,45,90,73,57,29.82,29.49,13,6,22,0.02
2014-3-2,59,53,48,54,49,46,93,87,72,30.18,29.82,11,2,17,0.01
2014-3-3,60,53,46,52,48,45,96,84,64,30.17,30.06,4,1,8,0.01
2014-3-4,64,56,52,56,53,50,97,89,76,30.12,30.05,8,2,12,0.00
2014-3-5,69,60,52,57,54,51,96,81,63,30.11,29.99,6,1,12,0.00
2014-3-6,65,58,49,57,52,46,95,81,57,30.19,30.04,10,2,13,0.02
2014-3-7,70,56,44,49,46,43,95,73,38,30.19,30.09,11,2,12,0.00
2014-3-8,74,58,44,51,46,42,93,69,41,30.21,30.11,6,1,8,0.00
2014-3-9,73,62,54,57,52,49,84,71,51,30.19,30.06,8,2,11,0.00
2014-3-10,68,60,52,54,47,40,94,65,40,30.23,30.10,9,2,15,0.00
2014-3-11,69,60,50,43,31,20,73,34,21,30.20,30.01,17,5,25,0.00
2014-3-12,74,63,53,37,29,20,53,28,20,30.10,30.00,14,5,28,0.00
2014-3-13,78,59,44,48,36,23,85,49,13,30.06,29.96,15,3,16,0.00
2014-3-14,75,59,49,52,48,41,91,71,32,30.22,30.06,8,3,14,0.00
2014-3-15,79,62,45,49,44,35,92,60,20,30.31,30.22,8,2,10,0.00
2014-3-16,82,62,47,50,44,31,89,60,18,30.30,30.16,12,3,18,0.00
2014-3-17,68,57,49,50,43,36,88,63,32,30.23,29.97,14,3,18,0.00
2014-3-18,71,56,43,42,34,25,83,49,19,29.98,29.89,13,2,19,0.00
2014-3-19,75,58,42,44,38,33,77,52,26,30.09,29.98,8,2,13,0.00
2014-3-20,76,60,49,47,43,39,81,58,29,30.06,29.92,10,2,15,0.00
2014-3-21,69,55,44,50,46,42,92,75,48,30.00,29.91,13,4,16,0.00
2014-3-22,71,56,47,51,47,44,91,73,46,30.11,29.99,9,3,14,0.00
2014-3-23,74,58,47,52,47,44,92,71,42,30.16,30.07,8,3,11,0.00
2014-3-24,79,61,44,50,44,40,89,59,27,30.14,30.00,9,2,12,0.00
2014-3-25,65,54,45,55,48,41,91,81,61,30.03,29.86,11,3,17,0.00
2014-3-26,60,53,50,53,49,47,94,86,62,29.98,29.81,10,3,21,0.04
2014-3-27,63,55,49,51,48,44,96,77,53,30.15,29.98,7,2,13,0.00
2014-3-28,69,58,49,51,49,47,91,74,48,30.20,30.10,9,2,16,0.00
2014-3-29,60,55,49,56,50,45,92,84,72,30.14,30.00,8,3,12,0.00
2014-3-30,60,52,44,48,44,41,96,76,54,30.12,30.04,12,2,15,0.01
2014-3-31,56,47,44,46,43,41,93,85,62,30.09,29.85,15,3,25,0.29
2014-6-5,85,74,59,54,49,42,72,43,25,29.84,29.76,13,6,18,0.00
2014-6-6,81,65,54,54,52,50,93,67,36,29.82,29.74,12,5,20,0.00
2014-6-7,88,68,53,57,54,50,95,64,34,29.83,29.74,14,5,19,0.00
2014-6-8,102,81,59,57,52,47,82,43,16,29.80,29.67,12,4,18,0.00
2014-6-9,104,81,63,57,52,43,67,41,13,29.72,29.60,12,4,19,0.00
2014-6-10,82,69,57,59,55,53,89,64,40,29.79,29.67,18,6,21,0.00
2014-6-11,75,64,56,57,54,52,88,72,50,29.89,29.78,14,6,18,0.00
2014-6-12,70,60,54,53,51,50,88,75,52,29.97,29.88,14,5,20,0.00
2014-6-13,83,66,54,54,51,43,88,64,29,29.98,29.89,11,4,18,0.00
2014-6-14,86,68,53,53,49,39,86,57,21,29.92,29.81,14,4,18,0.00
2014-6-15,74,60,53,52,51,49,87,74,45,29.84,29.78,13,5,20,0.00
2014-6-16,65,58,53,51,49,47,87,73,58,29.91,29.82,15,6,27,0.00
2014-6-17,78,64,51,49,45,42,85,55,28,29.94,29.87,11,4,17,0.00
2014-6-18,89,70,51,49,42,35,71,42,18,29.94,29.88,11,2,19,0.00
2014-6-19,61,59,57,49,48,46,73,65,62,29.92,29.91,5,2,13,0.00
2014-7-30,93,81,68,58,56,53,68,44,28,29.92,29.88,9,5,15,0.00
2014-7-31,92,74,58,60,56,50,92,59,28,29.94,29.83,10,5,17,0.00
2014-8-1,96,77,64,60,57,54,78,53,24,29.87,29.80,13,5,17,0.00
2014-8-2,83,66,57,60,57,55,95,74,44,29.92,29.85,15,6,20,0.00
2014-8-3,79,64,58,59,57,55,93,78,51,29.96,29.88,11,4,20,0.00
2014-8-4,76,65,58,60,57,55,91,76,54,29.98,29.91,11,4,15,0.00
2014-8-5,91,71,60,65,60,56,90,71,39,30.05,29.97,12,3,17,0.00
2014-8-6,87,75,64,65,61,56,89,64,42,29.99,29.90,12,3,17,0.00
2014-8-7,82,67,58,60,57,54,93,73,41,29.95,29.85,14,5,17,0.00
2014-8-8,84,67,58,58,56,53,92,69,37,29.91,29.82,14,6,18,0.00
2014-8-9,75,62,57,58,55,53,90,78,55,29.97,29.87,13,6,19,0.00
2014-8-10,82,65,57,58,56,54,89,74,44,29.99,29.91,11,4,15,0.00
2014-8-11,87,68,58,59,57,55,92,71,36,29.94,29.85,12,3,15,0.00
2014-8-12,80,66,59,58,56,54,88,73,45,29.96,29.88,11,3,14,0.00
2014-8-13,83,68,58,59,56,54,88,69,39,29.98,29.89,10,4,18,0.00
2014-8-14,85,69,58,58,55,47,94,65,29,29.94,29.86,11,4,15,0.00
2014-8-15,90,71,58,58,54,45,94,60,21,29.98,29.90,10,3,14,0.00
2014-8-16,89,70,57,59,54,41,95,62,26,30.03,29.93,8,3,14,0.00
2014-8-17,86,67,55,57,54,49,94,68,29,30.01,29.87,12,5,16,0.00
2014-8-18,76,64,58,59,57,55,93,81,56,29.89,29.77,14,5,22,0.00
2014-8-19,77,65,58,60,58,56,93,79,56,29.86,29.77,12,4,15,0.00
2014-8-20,78,67,60,60,58,56,88,74,53,29.92,29.82,8,3,16,0.00
2014-8-21,91,71,60,60,58,56,90,67,32,29.94,29.86,8,2,14,0.00
2014-8-22,85,67,58,60,58,55,94,75,42,29.91,29.84,15,4,21,0.00
2014-8-23,84,67,58,57,55,49,90,69,30,29.94,29.81,9,4,18,0.00
2014-8-24,80,66,58,58,56,55,92,73,44,29.89,29.77,12,4,17,0.00
2014-8-25,75,64,58,58,56,54,87,76,52,29.93,29.82,12,4,17,0.00
2014-8-26,85,68,56,58,56,53,90,69,36,30.00,29.89,13,4,17,0.00
2014-8-27,93,73,58,59,56,52,89,61,25,30.04,29.93,10,3,17,0.00
2014-8-28,91,71,58,62,58,55,94,68,35,30.05,29.88,11,4,16,0.00
2014-8-29,84,67,59,60,58,56,93,75,44,29.93,29.85,12,5,18,0.00
2014-8-30,89,72,60,59,57,55,88,64,33,29.89,29.82,13,4,18,0.00
2014-8-31,88,70,60,61,58,55,91,69,34,29.91,29.80,12,4,19,0.00
2014-9-1,97,76,58,57,54,50,86,53,20,29.84,29.71,7,3,14,0.00
2014-9-2,79,67,59,60,58,52,92,73,52,29.82,29.74,13,4,18,0.00
2014-9-3,85,68,60,60,58,57,90,73,43,29.78,29.65,12,4,18,0.00
2014-9-4,84,67,58,61,57,56,93,74,43,29.77,29.68,15,4,18,0.00
2014-9-5,83,66,59,59,57,55,92,74,43,29.89,29.77,13,5,18,0.00
2014-9-6,84,65,57,58,55,53,93,73,38,29.95,29.84,11,4,15,0.00
2014-9-7,82,65,55,56,54,52,90,71,37,29.89,29.77,12,4,17,0.00
2014-9-8,72,61,56,54,53,52,88,75,52,29.94,29.83,11,4,15,0.00
2014-9-9,84,67,56,56,54,49,88,67,33,29.99,29.86,10,3,16,0.00
2014-9-10,97,74,55,56,52,42,86,53,15,29.94,29.78,7,2,10,0.00
2014-9-11,99,76,58,55,51,42,78,48,14,29.87,29.76,9,2,12,0.00
2014-9-12,102,78,60,60,54,46,71,47,17,29.85,29.73,8,2,11,0.00
2014-9-13,100,75,62,61,57,50,82,57,27,29.82,29.72,11,4,18,0.00
2014-9-14,92,74,58,58,54,48,90,56,23,29.83,29.76,11,4,17,0.00
2014-9-15,86,69,59,59,55,52,90,65,34,29.92,29.80,11,4,15,0.00
2014-9-16,92,70,58,59,56,49,91,66,24,29.92,29.76,8,2,15,0.00
2014-9-17,88,71,60,62,57,52,93,66,32,29.80,29.71,11,3,20,0.00
2014-9-18,81,71,62,65,62,58,90,74,49,29.87,29.76,10,3,15,0.00
2014-9-19,84,69,59,62,60,56,94,75,45,29.90,29.81,12,3,14,0.00
2014-9-20,83,68,60,62,59,56,94,77,41,29.92,29.85,13,4,16,0.00
2014-9-21,74,65,61,61,59,57,89,82,62,30.00,29.91,12,5,18,0.00
2014-9-22,88,69,61,60,59,57,90,72,39,30.03,29.92,12,4,16,0.00
2014-9-23,87,70,59,62,59,56,91,72,36,29.99,29.88,11,3,13,0.00
2014-9-24,84,70,63,64,62,61,93,79,50,29.96,29.85,11,3,18,0.00
2014-9-25,78,65,58,62,57,54,96,78,47,30.00,29.87,9,2,11,0.03
2014-9-26,75,64,56,58,55,51,95,74,44,29.99,29.89,13,2,16,0.01
2014-9-27,78,64,56,58,56,54,92,77,50,29.92,29.80,9,3,19,0.00
2014-9-28,79,65,56,59,56,53,92,76,47,29.94,29.81,8,2,12,0.00
2014-9-29,78,64,56,60,57,55,96,80,49,30.02,29.93,9,3,15,0.00
2014-9-30,83,67,57,59,57,53,92,73,38,29.97,29.82,8,3,12,0.00
2014-10-1,85,69,54,55,43,32,92,48,16,29.93,29.84,12,3,18,0.00
2014-10-2,88,69,50,47,43,39,72,43,20,30.04,29.93,10,2,13,0.00
2014-10-3,95,73,54,48,44,40,71,41,15,30.09,29.98,7,2,12,0.00
2014-10-4,96,74,54,46,42,32,68,38,11,30.04,29.89,7,1,9,0.00
2014-10-5,75,60,54,46,43,41,65,56,32,29.95,29.90,4,0,5,0.00
2014-10-6,97,84,69,54,51,48,52,34,20,29.87,29.81,7,3,11,0.00
2014-10-7,94,72,58,58,53,48,79,54,28,29.91,29.80,11,3,15,0.00
2014-10-8,97,72,55,55,52,38,87,56,14,29.91,29.80,7,2,14,0.00
2014-10-9,83,67,57,58,55,53,90,69,39,29.97,29.88,14,4,16,0.00
2014-10-10,79,64,56,58,55,54,91,74,47,30.07,29.96,11,5,17,0.00
2014-10-11,90,67,54,59,55,51,94,69,31,30.06,29.94,8,2,13,0.00
2014-10-12,91,73,57,53,35,18,81,34,7,30.00,29.88,12,2,18,0.00
2014-10-13,94,70,52,51,39,27,65,37,10,29.98,29.88,8,2,14,0.00
2014-10-14,74,64,54,57,54,51,91,73,53,29.93,29.81,16,4,19,0.00
2014-10-15,74,65,58,58,55,53,91,72,50,30.03,29.85,9,2,11,0.09
2014-10-16,76,62,51,55,50,44,92,70,35,30.04,29.92,9,2,12,0.00
2014-10-17,78,63,50,53,50,47,90,66,39,29.99,29.92,7,1,13,0.00
2014-10-18,84,66,53,58,54,49,88,67,38,30.00,29.86,9,1,12,0.00
2014-10-19,83,66,54,60,56,52,94,75,39,29.92,29.84,12,2,16,0.00
2014-10-20,70,62,54,60,56,51,89,79,61,30.06,29.89,8,2,17,0.00
2014-10-21,72,59,47,51,47,43,94,70,36,30.12,30.00,8,2,12,0.01
2014-10-22,78,62,48,56,50,46,92,70,35,30.09,30.00,6,1,10,0.00
2014-10-23,79,64,55,59,56,53,93,76,49,30.08,29.96,5,1,9,0.00
2014-10-24,82,62,50,57,54,48,94,75,39,29.99,29.87,8,2,12,0.00
2014-10-25,71,63,56,59,56,54,91,79,60,30.14,29.90,13,4,15,0.11
2014-10-26,68,58,48,55,48,43,95,73,40,30.18,30.05,9,2,12,0.00
2014-10-27,76,57,44,50,46,38,93,70,27,30.09,30.00,6,1,13,0.00
2014-10-28,79,60,46,51,46,39,93,65,26,30.15,30.05,6,1,9,0.00
2014-10-29,84,64,50,52,48,45,90,61,27,30.14,29.97,5,1,9,0.00
2014-10-30,84,63,54,56,51,46,85,67,26,29.98,29.86,8,2,13,0.00
2014-10-31,63,58,54,58,54,51,92,87,78,29.91,29.73,7,1,13,0.08
2014-11-1,66,55,47,53,49,44,94,80,55,30.05,29.72,10,2,15,0.01
2014-11-2,70,54,42,50,44,41,95,73,38,30.19,30.05,8,1,12,0.01
2014-11-3,72,55,43,49,44,38,91,69,30,30.28,30.18,6,1,11,0.00
2014-11-4,72,56,44,49,44,41,91,68,38,30.34,30.22,7,1,10,0.00
2014-11-5,79,61,47,50,47,42,85,62,35,30.24,30.07,6,1,8,0.00
2014-11-6,79,63,49,56,51,45,91,70,38,30.22,30.14,7,2,10,0.00
2014-11-7,79,61,49,56,52,47,95,74,44,30.22,30.08,7,1,10,0.00
2014-11-8,78,62,48,56,50,46,93,69,38,30.13,30.00,8,1,12,0.00
2014-11-9,81,62,47,56,50,44,90,69,34,30.03,29.81,8,1,9,0.00
2014-11-10,81,60,48,57,51,46,93,75,38,29.84,29.76,12,2,16,0.00
2014-11-11,67,59,53,55,51,47,91,75,56,29.97,29.83,8,2,13,0.00
2014-11-12,69,60,55,52,48,46,83,66,46,30.03,29.95,8,1,9,0.02
2014-11-13,64,59,54,60,56,52,96,90,82,30.07,29.93,5,1,9,0.17
2014-11-14,69,58,50,55,53,49,96,83,58,30.11,30.05,7,2,12,0.01
2014-11-15,68,55,46,54,49,44,96,82,55,30.20,30.08,6,1,9,0.00
2014-11-16,63,52,43,46,34,16,93,57,17,30.27,30.18,8,1,15,0.01
2014-11-17,71,51,39,40,36,31,86,61,26,30.27,30.12,8,1,11,0.00
2014-11-18,59,50,41,46,43,38,90,76,58,30.15,30.07,7,1,9,0.00
2014-11-19,63,55,50,56,51,45,96,84,60,30.13,30.00,9,1,16,0.12
2014-11-20,57,54,50,56,52,49,98,96,93,30.12,29.98,5,0,10,0.07
2014-11-21,66,56,51,53,52,50,97,85,61,30.12,30.01,3,0,7,0.01
2014-11-22,68,59,53,61,54,50,95,85,62,30.23,30.05,11,2,17,0.02
2014-11-23,67,53,43,51,44,39,96,76,40,30.32,30.22,5,0,8,0.01
2014-11-24,69,50,38,43,38,31,94,68,25,30.41,30.32,5,0,9,0.01
2014-11-25,66,52,41,49,44,38,93,77,54,30.47,30.35,6,1,8,0.00
2014-11-26,70,53,41,51,46,39,95,79,50,30.34,30.21,7,1,8,0.00
2014-11-27,69,53,43,52,46,41,94,80,51,30.22,30.05,6,1,8,0.01
2014-11-28,70,52,39,52,46,38,96,80,39,30.07,29.86,7,2,12,0.00
2014-11-29,68,59,54,59,55,51,95,87,69,29.87,29.75,4,1,9,0.08
2014-11-30,59,55,52,55,52,50,96,92,81,30.04,29.75,7,1,15,0.18
2014-12-1,60,55,52,57,54,51,98,96,87,30.14,29.96,6,1,9,0.04
2014-12-2,57,55,52,55,54,52,98,96,91,29.97,29.69,8,2,17,0.13
2014-12-3,63,58,56,60,57,54,98,94,83,29.89,29.71,14,2,30,0.12
2014-12-4,70,59,53,60,55,51,98,87,59,30.02,29.88,8,1,12,0.02
2014-12-5,69,59,51,59,55,50,97,88,67,30.09,29.98,9,1,12,0.09
2014-12-6,70,61,55,60,57,53,96,86,63,30.22,30.08,7,1,10,0.06
2014-12-7,64,56,51,58,54,49,98,93,81,30.22,30.13,4,0,8,0.02
2014-12-8,74,58,51,57,53,50,98,87,54,30.19,30.11,8,1,10,0.00
2014-12-9,65,56,51,57,54,50,98,91,75,30.21,30.08,5,0,8,0.01
2014-12-10,66,58,52,57,53,52,98,86,66,30.08,29.74,12,2,20,0.01
2014-12-11,64,57,49,56,52,48,96,85,66,29.74,29.52,21,4,26,0.70
2014-12-12,60,50,46,52,48,45,97,91,70,30.09,29.65,4,0,7,0.00
2014-12-13,57,47,43,50,45,42,97,92,74,30.24,30.09,7,0,11,0.00
2014-12-14,62,49,42,49,45,41,97,87,60,30.16,30.00,8,1,12,0.06
2014-12-15,55,50,47,52,49,46,97,93,81,30.00,29.84,10,1,15,0.37
2014-12-16,63,51,45,52,48,44,98,88,61,29.98,29.83,9,1,17,0.14
2014-12-17,61,51,44,52,48,43,98,90,64,30.10,29.95,5,0,10,0.04
2014-12-18,63,53,50,54,50,48,96,89,71,30.19,30.07,4,0,7,0.00
2014-12-19,58,54,50,55,52,48,97,92,83,30.18,30.10,7,1,9,0.04
2014-12-20,61,56,52,57,53,51,98,90,75,30.26,30.12,1,0,5,0.00
2014-12-21,68,59,56,61,57,54,98,92,77,30.31,30.24,8,1,10,0.01
2014-12-22,66,58,50,58,54,49,94,88,68,30.29,30.17,5,1,9,0.00
2014-12-23,68,55,46,54,49,45,97,81,52,30.24,30.12,11,1,14,0.01
2014-12-24,59,50,43,54,47,39,97,89,77,30.11,29.93,17,2,21,0.03
2014-12-25,56,46,37,40,34,28,93,66,34,30.16,30.06,12,2,22,0.00
2014-12-26,58,47,39,33,31,27,77,56,33,30.27,30.11,18,3,20,0.00
2014-12-27,56,43,35,39,35,31,89,74,49,30.40,30.28,6,0,8,0.00
2014-12-28,61,46,37,45,40,35,94,79,50,30.39,30.25,5,0,9,0.00
2014-12-29,54,46,39,46,41,37,94,84,67,30.25,30.11,6,1,9,0.00
2014-12-30,51,45,38,39,25,13,93,52,26,30.27,30.11,24,7,32,0.00
2014-12-31,59,48,40,17,11,1,38,24,10,30.28,30.07,12,4,20,0.00
2015-1-1,55,44,33,31,24,11,81,48,22,30.19,30.07,11,2,17,0.00
2015-1-2,55,39,28,35,30,25,91,73,43,30.25,30.13,5,0,8,0.00